Time;durP1;ratioP1;P1;durP2;ratioP2;P2;SDS_P1;SDS_P2;PMS_P1;PMS_P2;Temp;Humidity;BMP_temperature;BMP_pressure;BME280_temperature;BME280_humidity;BME280_pressure;Samples;Min_cycle;Max_cycle;Signal;HPM_P1;HPM_P2
2021/12/23 00:00:00;;;;;;;26.93;15.90;;;-0.70;99.90;;;;;;5068888;28;20218;-63
2021/12/23 00:02:26;;;;;;;27.37;16.53;;;-0.70;99.90;;;;;;5076407;28;20190;-63
2021/12/23 00:04:51;;;;;;;27.07;17.17;;;-0.70;99.90;;;;;;5060019;28;20209;-63
2021/12/23 00:07:17;;;;;;;20.63;14.97;;;-0.80;99.90;;;;;;5065327;28;20589;-63
2021/12/23 00:12:14;;;;;;;22.67;15.30;;;-0.80;99.90;;;;;;5079248;28;20212;-62
2021/12/23 00:14:40;;;;;;;25.88;15.90;;;-0.80;99.90;;;;;;5075914;28;20220;-63
2021/12/23 00:25:14;;;;;;;27.85;17.27;;;-0.70;99.90;;;;;;5059720;28;20193;-63
2021/12/23 00:27:40;;;;;;;24.80;16.10;;;-0.70;99.90;;;;;;5061041;28;20182;-63
2021/12/23 00:30:06;;;;;;;26.10;16.07;;;-0.80;99.90;;;;;;5057657;28;20193;-63
2021/12/23 00:32:32;;;;;;;26.92;17.05;;;-0.70;99.90;;;;;;5056029;28;20208;-63
2021/12/23 00:34:58;;;;;;;25.50;16.10;;;-0.80;99.90;;;;;;5057876;28;20608;-63
2021/12/23 00:37:23;;;;;;;26.17;16.10;;;-0.80;99.90;;;;;;5061225;28;20174;-63
2021/12/23 00:39:49;;;;;;;31.10;17.03;;;-0.80;99.90;;;;;;5052987;28;20170;-63
2021/12/23 00:42:15;;;;;;;24.90;16.27;;;-0.80;99.90;;;;;;5046849;28;20517;-62
2021/12/23 00:44:45;;;;;;;28.30;15.90;;;-0.80;99.90;;;;;;5055771;28;20190;-63
2021/12/23 00:47:11;;;;;;;24.17;16.50;;;-0.80;99.90;;;;;;5060021;28;20448;-63
2021/12/23 00:49:36;;;;;;;21.20;15.13;;;-0.80;99.90;;;;;;5047672;28;20268;-62
2021/12/23 00:52:03;;;;;;;24.03;15.60;;;-0.90;99.90;;;;;;5054361;28;20664;-62
2021/12/23 00:54:29;;;;;;;28.77;16.17;;;-0.90;99.90;;;;;;5049868;28;20175;-54
2021/12/23 00:56:55;;;;;;;27.40;16.40;;;-0.90;99.90;;;;;;5057918;28;20236;-63
2021/12/23 00:59:20;;;;;;;23.83;14.57;;;-0.90;99.90;;;;;;5058992;28;20621;-63
2021/12/23 01:01:47;;;;;;;25.20;14.40;;;-0.90;99.90;;;;;;5052004;28;20182;-63
2021/12/23 01:04:13;;;;;;;26.40;16.17;;;-0.90;99.90;;;;;;5052459;28;20197;-63
2021/12/23 01:06:38;;;;;;;24.90;16.23;;;-0.90;99.90;;;;;;5060760;28;20186;-63
2021/12/23 01:09:04;;;;;;;28.70;16.47;;;-1.00;99.90;;;;;;5053465;28;20449;-62
2021/12/23 01:11:30;;;;;;;27.33;18.20;;;-1.00;99.90;;;;;;5055356;28;20189;-63
2021/12/23 01:14:14;;;;;;;26.33;15.90;;;-1.00;99.90;;;;;;5049298;28;20218;-61
2021/12/23 01:19:27;;;;;;;27.13;17.73;;;-1.00;99.90;;;;;;5082040;28;20180;-62
2021/12/23 01:21:53;;;;;;;27.13;17.25;;;-1.10;99.90;;;;;;5076130;28;20318;-62
2021/12/23 01:24:20;;;;;;;28.70;17.47;;;-1.10;99.90;;;;;;5075515;28;20268;-62
2021/12/23 01:26:45;;;;;;;25.17;17.92;;;-1.10;99.90;;;;;;5080409;28;20533;-61
2021/12/23 01:29:12;;;;;;;25.50;16.93;;;-1.00;99.90;;;;;;5072581;28;20280;-63
2021/12/23 01:31:38;;;;;;;28.23;17.23;;;-1.00;99.90;;;;;;5072062;28;20192;-63
2021/12/23 01:34:04;;;;;;;24.95;16.00;;;-0.90;99.90;;;;;;5074076;28;20193;-62
2021/12/23 01:36:30;;;;;;;31.00;16.77;;;-0.90;99.90;;;;;;5080538;28;20177;-63
2021/12/23 01:38:56;;;;;;;27.00;16.10;;;-0.90;99.90;;;;;;5074540;28;20189;-62
2021/12/23 01:41:23;;;;;;;27.20;17.60;;;-0.90;99.90;;;;;;5081077;28;20446;-54
2021/12/23 01:43:50;;;;;;;31.88;17.35;;;-0.90;99.90;;;;;;5071950;28;20176;-62
2021/12/23 01:46:15;;;;;;;27.13;16.73;;;-0.90;99.90;;;;;;5081640;28;20186;-62
2021/12/23 01:48:41;;;;;;;27.70;15.97;;;-0.90;99.90;;;;;;5071677;28;20184;-62
2021/12/23 01:51:07;;;;;;;25.88;17.58;;;-0.90;99.90;;;;;;5076135;28;20304;-62
2021/12/23 01:53:33;;;;;;;27.33;15.10;;;-0.80;99.90;;;;;;5066605;28;20280;-62
2021/12/23 01:56:00;;;;;;;27.77;16.63;;;-0.80;99.90;;;;;;5051299;28;20452;-64
2021/12/23 01:58:26;;;;;;;25.77;15.55;;;-0.70;99.90;;;;;;5070270;28;20443;-61
2021/12/23 02:00:52;;;;;;;24.17;15.60;;;-0.70;99.90;;;;;;5070346;28;20542;-61
2021/12/23 02:03:19;;;;;;;23.52;15.52;;;-0.60;99.90;;;;;;5070698;28;20189;-63
2021/12/23 02:05:45;;;;;;;25.77;16.45;;;-0.60;99.90;;;;;;5069436;28;20185;-53
2021/12/23 02:08:11;;;;;;;27.80;16.58;;;-0.60;99.90;;;;;;5074283;28;20189;-50
2021/12/23 02:10:36;;;;;;;26.13;16.35;;;-0.60;99.90;;;;;;5074665;28;20192;-51
2021/12/23 02:13:03;;;;;;;25.00;15.13;;;-0.60;99.90;;;;;;5075336;28;20208;-52
2021/12/23 02:15:28;;;;;;;23.75;15.65;;;-0.60;99.90;;;;;;5073719;28;20471;-52
2021/12/23 02:17:54;;;;;;;21.57;15.07;;;-0.60;99.90;;;;;;5060689;28;20272;-48
2021/12/23 02:20:23;;;;;;;26.73;16.57;;;-0.50;99.90;;;;;;5047232;28;20460;-53
2021/12/23 02:22:49;;;;;;;22.75;15.35;;;-0.50;99.90;;;;;;5046106;28;20941;-49
2021/12/23 02:25:15;;;;;;;26.83;15.87;;;-0.60;99.90;;;;;;5049373;28;20182;-53
2021/12/23 02:27:42;;;;;;;24.50;16.05;;;-0.60;99.90;;;;;;5058238;28;20185;-55
2021/12/23 02:30:12;;;;;;;24.77;15.23;;;-0.60;99.90;;;;;;5047477;28;20259;-52
2021/12/23 02:32:38;;;;;;;24.90;16.20;;;-0.60;99.90;;;;;;5058146;28;20205;-52
2021/12/23 02:35:06;;;;;;;21.13;14.60;;;-0.50;99.90;;;;;;5045570;28;20281;-51
2021/12/23 02:37:32;;;;;;;25.85;14.98;;;-0.50;99.90;;;;;;5047987;28;20175;-50
2021/12/23 02:39:57;;;;;;;24.80;15.20;;;-0.50;99.90;;;;;;5054874;28;20182;-49
2021/12/23 02:42:24;;;;;;;26.70;15.20;;;-0.50;99.90;;;;;;5052673;28;20260;-50
2021/12/23 02:44:52;;;;;;;24.10;16.15;;;-0.50;99.90;;;;;;5051489;28;20826;-51
2021/12/23 02:47:18;;;;;;;23.23;16.10;;;-0.50;99.90;;;;;;5038214;28;20186;-52
2021/12/23 02:49:44;;;;;;;25.55;15.75;;;-0.50;99.90;;;;;;5057845;28;20192;-53
2021/12/23 02:52:10;;;;;;;28.43;16.67;;;-0.50;99.90;;;;;;5062052;28;20199;-51
2021/12/23 02:54:35;;;;;;;25.70;15.97;;;-0.50;99.90;;;;;;5057318;28;20432;-49
2021/12/23 02:57:01;;;;;;;25.27;16.13;;;-0.40;99.90;;;;;;5053705;28;20194;-51
2021/12/23 02:59:27;;;;;;;26.40;16.37;;;-0.40;99.90;;;;;;5058675;28;20189;-54
2021/12/23 03:01:53;;;;;;;24.57;15.37;;;-0.40;99.90;;;;;;5052584;28;20448;-51
2021/12/23 03:04:18;;;;;;;24.93;16.50;;;-0.40;99.90;;;;;;5053781;28;20240;-51
2021/12/23 03:06:44;;;;;;;29.20;16.93;;;-0.40;99.90;;;;;;5047839;28;20197;-50
2021/12/23 03:09:09;;;;;;;24.57;16.53;;;-0.40;99.90;;;;;;5056713;28;20591;-53
2021/12/23 03:11:35;;;;;;;27.20;18.20;;;-0.40;99.90;;;;;;5063597;28;20185;-50
2021/12/23 03:14:01;;;;;;;28.90;17.83;;;-0.50;99.90;;;;;;5062968;28;20202;-50
2021/12/23 03:16:33;;;;;;;24.83;16.40;;;-0.40;99.90;;;;;;5036164;28;20232;-54
2021/12/23 03:18:59;;;;;;;31.13;17.13;;;-0.50;99.90;;;;;;5076565;28;20210;-55
2021/12/23 03:21:24;;;;;;;25.30;16.20;;;-0.50;99.90;;;;;;5060726;28;20244;-52
2021/12/23 03:23:51;;;;;;;26.57;16.37;;;-0.40;99.90;;;;;;5063756;28;20185;-52
2021/12/23 03:26:17;;;;;;;24.98;17.17;;;-0.40;99.90;;;;;;5082694;28;20180;-52
2021/12/23 03:28:42;;;;;;;29.00;16.67;;;-0.50;99.90;;;;;;5076665;28;20239;-52
2021/12/23 03:31:08;;;;;;;30.50;17.30;;;-0.50;99.90;;;;;;5064172;28;20438;-49
2021/12/23 03:33:34;;;;;;;25.63;16.70;;;-0.50;99.90;;;;;;5074532;28;20217;-49
2021/12/23 03:36:00;;;;;;;29.00;17.33;;;-0.50;99.90;;;;;;5062163;28;20190;-51
2021/12/23 03:38:27;;;;;;;28.47;17.53;;;-0.50;99.90;;;;;;5047826;28;20178;-54
2021/12/23 03:40:53;;;;;;;32.88;18.58;;;-0.40;99.90;;;;;;5045500;28;20659;-49
2021/12/23 03:43:19;;;;;;;31.27;18.35;;;-0.40;99.90;;;;;;5072319;28;20223;-51
2021/12/23 03:45:46;;;;;;;27.70;17.40;;;-0.40;99.90;;;;;;5063119;28;20189;-49
2021/12/23 03:48:12;;;;;;;28.90;17.30;;;-0.50;99.90;;;;;;5065853;28;20189;-50
2021/12/23 03:50:39;;;;;;;28.67;18.33;;;-0.50;99.90;;;;;;5080753;28;20685;-52
2021/12/23 03:53:04;;;;;;;25.83;17.40;;;-0.50;99.90;;;;;;5070214;28;20206;-51
2021/12/23 03:55:31;;;;;;;27.70;16.80;;;-0.50;99.90;;;;;;5053511;28;20223;-51
2021/12/23 03:57:57;;;;;;;27.15;17.85;;;-0.50;99.90;;;;;;5076635;28;20443;-48
2021/12/23 04:00:23;;;;;;;27.47;18.10;;;-0.40;99.90;;;;;;5064355;28;20713;-50
2021/12/23 04:02:50;;;;;;;29.00;16.98;;;-0.50;99.90;;;;;;5076624;28;20204;-52
2021/12/23 04:05:16;;;;;;;26.17;16.60;;;-0.40;99.90;;;;;;5063283;28;20186;-52
2021/12/23 04:07:42;;;;;;;25.20;16.92;;;-0.50;99.90;;;;;;5071735;28;20206;-50
2021/12/23 04:10:10;;;;;;;29.58;18.83;;;-0.40;99.90;;;;;;5049868;28;20184;-52
2021/12/23 04:12:36;;;;;;;29.63;18.15;;;-0.50;99.90;;;;;;5070311;28;20210;-50
2021/12/23 04:15:03;;;;;;;35.58;19.17;;;-0.50;99.90;;;;;;5067906;28;20174;-52
2021/12/23 04:17:28;;;;;;;28.67;17.17;;;-0.50;99.90;;;;;;5080795;28;20589;-51
2021/12/23 04:20:09;;;;;;;31.03;18.50;;;-0.40;99.90;;;;;;5059044;28;20587;-54
2021/12/23 04:22:35;;;;;;;27.88;16.98;;;-0.40;99.90;;;;;;5073506;28;20208;-51
2021/12/23 04:25:01;;;;;;;27.40;18.77;;;-0.40;99.90;;;;;;5080161;28;20193;-49
2021/12/23 04:27:26;;;;;;;28.47;18.20;;;-0.50;99.90;;;;;;5072256;28;20181;-52
2021/12/23 04:29:52;;;;;;;30.47;18.13;;;-0.50;99.90;;;;;;5064644;28;20198;-53
2021/12/23 04:32:17;;;;;;;30.17;18.20;;;-0.50;99.90;;;;;;5069470;28;20780;-51
2021/12/23 04:34:43;;;;;;;28.37;18.00;;;-0.50;99.90;;;;;;5074266;28;20238;-54
2021/12/23 04:37:08;;;;;;;32.17;19.33;;;-0.50;99.90;;;;;;5072809;28;20196;-56
2021/12/23 04:39:34;;;;;;;31.20;18.90;;;-0.50;99.90;;;;;;5076576;28;20252;-48
2021/12/23 04:41:59;;;;;;;33.30;18.13;;;-0.50;99.90;;;;;;5075547;28;20626;-50
2021/12/23 04:44:25;;;;;;;28.50;18.97;;;-0.50;99.90;;;;;;5067778;28;20594;-56
2021/12/23 04:46:50;;;;;;;27.83;18.17;;;-0.40;99.90;;;;;;5077628;28;20197;-51
2021/12/23 04:49:16;;;;;;;28.43;18.77;;;-0.40;99.90;;;;;;5078633;28;20177;-53
2021/12/23 04:51:41;;;;;;;28.90;18.83;;;-0.50;99.90;;;;;;5075267;28;20185;-50
2021/12/23 04:54:07;;;;;;;27.50;18.97;;;-0.50;99.90;;;;;;5067496;28;20213;-54
2021/12/23 04:56:32;;;;;;;29.80;18.50;;;-0.50;99.90;;;;;;5069790;28;20933;-55
2021/12/23 04:58:58;;;;;;;26.67;16.80;;;-0.50;99.90;;;;;;5072261;28;20247;-52
2021/12/23 05:01:29;;;;;;;33.80;19.97;;;-0.50;99.90;;;;;;5073651;28;20185;-48
2021/12/23 05:03:55;;;;;;;33.28;19.45;;;-0.50;99.90;;;;;;5070501;28;20192;-53
2021/12/23 05:06:20;;;;;;;27.15;17.80;;;-0.50;99.90;;;;;;5069995;28;20969;-51
2021/12/23 05:08:46;;;;;;;29.87;18.60;;;-0.60;99.90;;;;;;5072822;28;20192;-54
2021/12/23 05:11:12;;;;;;;30.73;18.93;;;-0.60;99.90;;;;;;5072856;28;20185;-56
2021/12/23 05:13:38;;;;;;;29.25;18.73;;;-0.70;99.90;;;;;;5070507;28;20480;-53
2021/12/23 05:16:05;;;;;;;31.05;19.08;;;-0.60;99.90;;;;;;5072158;28;20265;-52
2021/12/23 05:18:31;;;;;;;30.80;19.25;;;-0.70;99.90;;;;;;5074710;28;20751;-48
2021/12/23 05:20:56;;;;;;;30.93;18.90;;;-0.70;99.90;;;;;;5057779;28;20244;-51
2021/12/23 05:23:22;;;;;;;29.90;20.33;;;-0.70;99.90;;;;;;5058930;28;20189;-52
2021/12/23 05:25:47;;;;;;;30.57;19.03;;;-0.70;99.90;;;;;;5058751;28;20221;-50
2021/12/23 05:28:13;;;;;;;31.63;19.90;;;-0.60;99.90;;;;;;5059142;28;20559;-54
2021/12/23 05:30:40;;;;;;;32.97;19.92;;;-0.60;99.90;;;;;;5058109;28;21946;-52
2021/12/23 05:33:06;;;;;;;33.60;18.65;;;-0.60;99.90;;;;;;5056446;28;20209;-50
2021/12/23 05:35:32;;;;;;;34.23;18.90;;;-0.60;99.90;;;;;;5059692;28;20700;-54
2021/12/23 05:37:58;;;;;;;30.73;18.73;;;-0.50;99.90;;;;;;5057858;28;20438;-53
2021/12/23 05:40:25;;;;;;;30.50;18.40;;;-0.50;99.90;;;;;;5055167;28;20189;-51
2021/12/23 05:42:52;;;;;;;30.65;18.25;;;-0.60;99.90;;;;;;5060980;28;20435;-53
2021/12/23 05:45:18;;;;;;;29.27;18.10;;;-0.70;99.90;;;;;;5067569;28;20213;-49
2021/12/23 05:47:45;;;;;;;29.85;18.50;;;-0.60;99.90;;;;;;5067538;28;20189;-52
2021/12/23 05:50:12;;;;;;;29.90;18.33;;;-0.60;99.90;;;;;;5078459;28;20635;-49
2021/12/23 05:52:38;;;;;;;27.23;18.60;;;-0.70;99.90;;;;;;5053941;28;20290;-52
2021/12/23 05:55:05;;;;;;;29.55;18.77;;;-0.70;99.90;;;;;;5056426;28;20843;-55
2021/12/23 05:57:31;;;;;;;27.55;18.60;;;-0.70;99.90;;;;;;5062226;28;20257;-51
2021/12/23 05:59:57;;;;;;;29.37;19.37;;;-0.70;99.90;;;;;;5063239;28;20273;-55
2021/12/23 06:02:22;;;;;;;32.70;19.33;;;-0.70;99.90;;;;;;5070165;28;20188;-51
2021/12/23 06:04:48;;;;;;;35.07;20.17;;;-0.70;99.90;;;;;;5052050;28;20185;-48
2021/12/23 06:07:13;;;;;;;33.87;19.03;;;-0.70;99.90;;;;;;5064305;28;20968;-51
2021/12/23 06:09:39;;;;;;;32.80;20.60;;;-0.80;99.90;;;;;;5067964;28;20269;-53
2021/12/23 06:12:05;;;;;;;29.43;19.03;;;-0.80;99.90;;;;;;5070501;28;20236;-50
2021/12/23 06:14:31;;;;;;;30.40;18.60;;;-0.80;99.90;;;;;;5067659;28;20202;-48
2021/12/23 06:16:56;;;;;;;29.40;18.60;;;-0.80;99.90;;;;;;5068332;28;20835;-49
2021/12/23 06:19:22;;;;;;;30.40;19.93;;;-0.80;99.90;;;;;;5067322;28;20178;-51
2021/12/23 06:21:47;;;;;;;28.97;19.57;;;-0.80;99.90;;;;;;5067568;28;20206;-50
2021/12/23 06:24:13;;;;;;;31.30;19.50;;;-0.80;99.90;;;;;;5065855;28;20185;-51
2021/12/23 06:26:38;;;;;;;30.10;19.17;;;-0.70;99.90;;;;;;5067719;28;21032;-51
2021/12/23 06:29:04;;;;;;;29.83;19.03;;;-0.80;99.90;;;;;;5066306;28;20192;-51
2021/12/23 06:31:29;;;;;;;30.07;19.20;;;-0.70;99.90;;;;;;5061359;28;20228;-55
2021/12/23 06:33:55;;;;;;;31.20;19.33;;;-0.70;99.90;;;;;;5071650;28;20262;-49
2021/12/23 06:36:21;;;;;;;31.87;19.10;;;-0.70;99.90;;;;;;5062771;28;20192;-54
2021/12/23 06:38:46;;;;;;;29.30;18.70;;;-0.60;99.90;;;;;;5078539;28;20564;-54
2021/12/23 06:41:12;;;;;;;28.33;20.37;;;-0.70;99.90;;;;;;5079116;28;20201;-53
2021/12/23 06:43:39;;;;;;;28.87;19.13;;;-0.60;99.90;;;;;;5061881;28;20193;-49
2021/12/23 06:46:05;;;;;;;32.95;21.63;;;-0.70;99.90;;;;;;5066594;28;20464;-48
2021/12/23 06:48:32;;;;;;;31.33;18.67;;;-0.70;99.90;;;;;;5069940;28;20524;-55
2021/12/23 06:50:59;;;;;;;31.40;19.48;;;-0.70;99.90;;;;;;5080286;28;20453;-48
2021/12/23 06:53:25;;;;;;;32.40;19.38;;;-0.70;99.90;;;;;;5076815;28;20714;-52
2021/12/23 06:55:52;;;;;;;27.63;18.23;;;-0.80;99.90;;;;;;5056314;28;20214;-50
2021/12/23 06:58:23;;;;;;;31.65;19.25;;;-0.80;99.90;;;;;;5082061;28;20272;-53
2021/12/23 07:00:50;;;;;;;31.33;19.25;;;-0.70;99.90;;;;;;5083074;28;20189;-50
2021/12/23 07:03:15;;;;;;;32.42;20.90;;;-0.80;99.90;;;;;;5072265;28;20292;-49
2021/12/23 07:05:42;;;;;;;29.90;19.70;;;-0.80;99.90;;;;;;5075809;28;20558;-53
2021/12/23 07:08:14;;;;;;;33.55;23.40;;;-0.80;99.90;;;;;;5072393;28;20189;-51
2021/12/23 07:10:40;;;;;;;30.60;18.75;;;-0.80;99.90;;;;;;5080249;28;20188;-49
2021/12/23 07:13:06;;;;;;;31.90;19.57;;;-0.80;99.90;;;;;;5076448;28;20216;-49
2021/12/23 07:15:32;;;;;;;33.40;20.80;;;-0.80;99.90;;;;;;5082567;28;20429;-53
2021/12/23 07:17:59;;;;;;;31.42;22.15;;;-0.70;99.90;;;;;;5082338;28;20237;-55
2021/12/23 07:20:26;;;;;;;32.45;18.95;;;-0.70;99.90;;;;;;5083138;28;20184;-49
2021/12/23 07:22:53;;;;;;;31.85;20.85;;;-0.70;99.90;;;;;;5081955;28;20210;-56
2021/12/23 07:25:19;;;;;;;29.17;19.43;;;-0.70;99.90;;;;;;5078789;28;21003;-51
2021/12/23 07:27:45;;;;;;;34.17;19.27;;;-0.70;99.90;;;;;;5078723;28;20448;-51
2021/12/23 07:30:14;;;;;;;31.20;17.90;;;-0.70;99.90;;;;;;5081523;28;20514;-50
2021/12/23 07:32:40;;;;;;;31.33;21.50;;;-0.70;99.90;;;;;;5074015;28;20282;-51
2021/12/23 07:35:06;;;;;;;30.38;18.50;;;-0.70;99.90;;;;;;5072275;28;20178;-53
2021/12/23 07:37:32;;;;;;;31.45;19.92;;;-0.60;99.90;;;;;;5074594;28;20706;-54
2021/12/23 07:39:58;;;;;;;30.23;19.13;;;-0.60;99.90;;;;;;5070217;28;20272;-53
2021/12/23 07:42:26;;;;;;;33.53;17.93;;;-0.70;99.90;;;;;;5072890;28;20527;-48
2021/12/23 07:44:52;;;;;;;33.70;20.27;;;-0.70;99.90;;;;;;5069845;28;20427;-50
2021/12/23 07:47:18;;;;;;;27.65;18.45;;;-0.70;99.90;;;;;;5068367;28;20367;-49
2021/12/23 07:49:44;;;;;;;32.43;19.10;;;-0.70;99.90;;;;;;5070983;28;20273;-51
2021/12/23 07:52:10;;;;;;;30.15;18.70;;;-0.60;99.90;;;;;;5070416;28;20438;-48
2021/12/23 07:54:37;;;;;;;28.57;18.07;;;-0.60;99.90;;;;;;5072851;28;20184;-52
2021/12/23 07:57:03;;;;;;;30.60;17.98;;;-0.60;99.90;;;;;;5069616;28;20432;-49
2021/12/23 07:59:29;;;;;;;30.95;19.30;;;-0.60;99.90;;;;;;5070064;28;20174;-50
2021/12/23 08:01:56;;;;;;;31.10;19.80;;;-0.70;99.90;;;;;;5068885;28;20188;-49
2021/12/23 08:04:22;;;;;;;28.98;18.35;;;-0.70;99.90;;;;;;5069119;28;20642;-55
2021/12/23 08:06:54;;;;;;;30.13;17.35;;;-0.70;99.90;;;;;;5068855;28;20273;-53
2021/12/23 08:09:19;;;;;;;29.52;18.15;;;-0.60;99.90;;;;;;5070023;28;20174;-49
2021/12/23 08:11:45;;;;;;;30.27;18.70;;;-0.60;99.90;;;;;;5073613;28;20238;-51
2021/12/23 08:14:11;;;;;;;29.27;18.90;;;-0.60;99.90;;;;;;5070677;28;20209;-52
2021/12/23 08:16:36;;;;;;;29.30;19.03;;;-0.60;99.90;;;;;;5067516;28;20520;-52
2021/12/23 08:19:02;;;;;;;32.07;18.10;;;-0.50;99.90;;;;;;5069795;28;20639;-48
2021/12/23 08:21:28;;;;;;;26.97;18.47;;;-0.40;99.90;;;;;;5070721;28;20588;-52
2021/12/23 08:23:54;;;;;;;26.55;18.58;;;-0.40;99.90;;;;;;5070059;28;20186;-54
2021/12/23 08:26:26;;;;;;;29.08;19.05;;;-0.50;99.90;;;;;;5080363;28;20188;-49
2021/12/23 08:28:52;;;;;;;30.85;18.25;;;-0.50;99.90;;;;;;5086309;28;20380;-49
2021/12/23 08:31:17;;;;;;;32.60;19.87;;;-0.50;99.90;;;;;;5079040;28;20227;-52
2021/12/23 08:33:43;;;;;;;30.40;18.67;;;-0.40;99.90;;;;;;5080701;28;20225;-52
2021/12/23 08:36:08;;;;;;;28.20;17.47;;;-0.50;99.90;;;;;;5077920;28;20178;-53
2021/12/23 08:38:34;;;;;;;30.53;19.17;;;-0.50;99.90;;;;;;5074170;28;20226;-51
2021/12/23 08:41:00;;;;;;;30.07;18.87;;;-0.50;99.90;;;;;;5068439;28;20636;-52
2021/12/23 08:43:25;;;;;;;30.83;18.50;;;-0.30;99.90;;;;;;5072183;28;20533;-54
2021/12/23 08:45:51;;;;;;;30.00;18.37;;;-0.30;99.90;;;;;;5068869;28;20538;-50
2021/12/23 08:48:16;;;;;;;28.07;17.77;;;-0.30;99.90;;;;;;5070307;28;20185;-50
2021/12/23 08:50:42;;;;;;;31.13;18.97;;;-0.30;99.90;;;;;;5081657;28;20185;-56
2021/12/23 08:53:07;;;;;;;28.27;19.40;;;-0.30;99.90;;;;;;5076118;28;20288;-52
2021/12/23 08:55:33;;;;;;;31.03;18.47;;;-0.30;99.90;;;;;;5067099;28;20628;-51
2021/12/23 08:58:03;;;;;;;28.87;17.93;;;-0.40;99.90;;;;;;5071437;28;20208;-51
2021/12/23 09:00:30;;;;;;;26.85;18.95;;;-0.30;99.90;;;;;;5068362;28;20435;-50
2021/12/23 09:02:57;;;;;;;26.30;17.35;;;-0.30;99.90;;;;;;5065983;28;20534;-53
2021/12/23 09:05:23;;;;;;;28.75;19.17;;;-0.30;99.90;;;;;;5067757;28;20190;-48
2021/12/23 09:07:49;;;;;;;28.00;18.90;;;-0.30;99.90;;;;;;5081564;28;20189;-55
2021/12/23 09:10:16;;;;;;;27.85;18.13;;;-0.30;99.90;;;;;;5074289;28;20186;-53
2021/12/23 09:12:42;;;;;;;32.60;20.02;;;-0.20;99.90;;;;;;5058480;28;20214;-52
2021/12/23 09:15:09;;;;;;;28.52;18.95;;;-0.20;99.90;;;;;;5058803;28;20233;-51
2021/12/23 09:17:35;;;;;;;28.52;18.75;;;-0.20;99.90;;;;;;5066475;28;20291;-51
2021/12/23 09:20:01;;;;;;;29.95;17.70;;;-0.20;99.90;;;;;;5069691;28;20209;-51
2021/12/23 09:22:27;;;;;;;30.02;18.00;;;-0.10;99.90;;;;;;5060709;28;20174;-51
2021/12/23 09:24:56;;;;;;;31.40;18.33;;;-0.10;99.90;;;;;;5066327;28;20186;-51
2021/12/23 09:27:34;;;;;;;28.30;18.42;;;-0.10;99.90;;;;;;5064619;28;20197;-49
2021/12/23 09:32:53;;;;;;;29.15;18.35;;;0.00;99.90;;;;;;5068135;28;21107;-61
2021/12/23 09:35:22;;;;;;;26.63;18.42;;;0.10;99.90;;;;;;5069368;28;20226;-62
2021/12/23 09:37:48;;;;;;;31.40;19.10;;;0.00;99.90;;;;;;5068609;28;20186;-55
2021/12/23 09:40:15;;;;;;;27.33;18.30;;;0.00;99.90;;;;;;5069150;28;20253;-61
2021/12/23 09:42:42;;;;;;;32.67;18.20;;;0.00;99.90;;;;;;5058293;28;20189;-62
2021/12/23 09:45:11;;;;;;;27.75;19.55;;;0.00;99.90;;;;;;5065670;28;20245;-63
2021/12/23 09:47:37;;;;;;;26.98;15.95;;;0.00;99.90;;;;;;5051035;28;20185;-61
2021/12/23 09:50:07;;;;;;;29.03;17.93;;;0.00;99.90;;;;;;5068177;28;20852;-63
2021/12/23 09:52:34;;;;;;;29.13;18.20;;;0.00;99.90;;;;;;5069022;28;20510;-63
2021/12/23 09:55:04;;;;;;;24.83;17.90;;;0.10;99.90;;;;;;5066930;28;20166;-62
2021/12/23 09:57:30;;;;;;;29.83;16.85;;;0.20;99.90;;;;;;5067364;28;20181;-62
2021/12/23 09:59:56;;;;;;;29.15;18.30;;;0.20;99.90;;;;;;5050222;28;20174;-58
2021/12/23 10:02:22;;;;;;;28.27;17.98;;;0.20;99.90;;;;;;5068188;28;20259;-62
2021/12/23 10:04:48;;;;;;;28.10;17.07;;;0.30;99.90;;;;;;5064004;28;20788;-61
2021/12/23 10:07:13;;;;;;;26.00;17.27;;;0.30;99.90;;;;;;5072301;28;20181;-61
2021/12/23 10:09:58;;;;;;;31.00;18.90;;;0.40;99.90;;;;;;5074686;28;20173;-62
2021/12/23 10:32:13;;;;;;;28.13;18.85;;;0.60;99.90;;;;;;5064441;28;20209;-62
2021/12/23 10:37:17;;;;;;;26.23;17.13;;;0.70;99.90;;;;;;5076084;28;20177;-62
2021/12/23 10:40:11;;;;;;;28.38;17.75;;;0.70;99.90;;;;;;5055002;28;20254;-62
2021/12/23 10:42:38;;;;;;;30.23;16.90;;;0.60;99.90;;;;;;5066181;28;20170;-62
2021/12/23 10:45:07;;;;;;;28.15;17.90;;;0.70;99.90;;;;;;5079948;28;20863;-62
2021/12/23 10:47:44;;;;;;;33.20;19.15;;;0.60;99.90;;;;;;5068955;28;20190;-61
2021/12/23 10:50:27;;;;;;;28.88;18.08;;;0.70;99.90;;;;;;5070916;28;20180;-62
2021/12/23 10:53:36;;;;;;;28.50;18.10;;;0.60;99.90;;;;;;5079687;28;20283;-62
2021/12/23 10:59:23;;;;;;;29.13;17.58;;;0.80;99.90;;;;;;5062366;28;20250;-61
2021/12/23 11:02:16;;;;;;;25.17;17.42;;;0.80;99.90;;;;;;5055341;28;20600;-61
2021/12/23 11:08:00;;;;;;;26.88;17.30;;;0.80;99.90;;;;;;5049151;28;20620;-61
2021/12/23 11:35:51;;;;;;;30.25;18.20;;;0.90;99.90;;;;;;5035558;28;20693;-61
2021/12/23 11:41:19;;;;;;;28.00;19.58;;;0.70;99.90;;;;;;5035000;28;20183;-62
2021/12/23 11:46:13;;;;;;;29.40;17.73;;;0.80;99.90;;;;;;5037645;28;20193;-61
2021/12/23 11:48:43;;;;;;;28.48;18.13;;;0.70;99.90;;;;;;5039287;28;20178;-57
2021/12/23 11:51:15;;;;;;;27.80;18.33;;;0.80;99.90;;;;;;5038306;28;20532;-62
2021/12/23 11:53:43;;;;;;;29.77;18.75;;;0.80;99.90;;;;;;5041428;28;20238;-63
2021/12/23 11:56:11;;;;;;;30.40;19.15;;;0.70;99.90;;;;;;5035096;28;20620;-60
2021/12/23 11:58:46;;;;;;;29.02;18.55;;;0.80;99.90;;;;;;5035603;28;20199;-62
2021/12/23 12:01:21;;;;;;;28.65;19.60;;;0.80;99.90;;;;;;5036112;28;20533;-62
2021/12/23 12:04:05;;;;;;;28.85;18.70;;;0.80;99.90;;;;;;5038521;28;20273;-62
2021/12/23 12:06:45;;;;;;;29.85;20.65;;;0.70;99.90;;;;;;5034954;28;20187;-62
2021/12/23 12:09:27;;;;;;;29.85;20.10;;;0.70;99.90;;;;;;5021335;28;20181;-62
2021/12/23 12:11:58;;;;;;;33.20;19.52;;;0.70;99.90;;;;;;5039315;28;20191;-61
2021/12/23 12:14:54;;;;;;;32.08;19.40;;;0.70;99.90;;;;;;5037014;28;20206;-62
2021/12/23 12:17:25;;;;;;;32.45;19.48;;;0.70;99.90;;;;;;5032522;28;20222;-62
2021/12/23 12:20:03;;;;;;;28.40;20.05;;;0.70;99.90;;;;;;5036290;28;20193;-62
2021/12/23 12:23:04;;;;;;;32.78;21.13;;;0.80;99.90;;;;;;5063818;28;20246;-62
2021/12/23 12:25:30;;;;;;;30.27;18.90;;;0.70;99.90;;;;;;5048698;28;20564;-62
2021/12/23 12:27:55;;;;;;;33.30;19.03;;;0.80;99.90;;;;;;5057090;28;20197;-62
2021/12/23 12:30:38;;;;;;;32.17;20.53;;;0.80;99.90;;;;;;5060216;28;20186;-53
2021/12/23 12:33:08;;;;;;;32.72;19.90;;;0.90;99.90;;;;;;5054210;28;20206;-62
2021/12/23 12:35:34;;;;;;;32.53;20.20;;;0.80;99.90;;;;;;5055756;28;20186;-62
2021/12/23 12:38:21;;;;;;;30.70;19.57;;;0.90;99.90;;;;;;5054724;28;20187;-62
2021/12/23 12:41:05;;;;;;;28.58;19.98;;;0.80;99.90;;;;;;5061044;28;20197;-62
2021/12/23 12:43:48;;;;;;;32.38;19.95;;;0.90;99.90;;;;;;5055983;28;20178;-62
2021/12/23 12:46:22;;;;;;;37.15;21.35;;;0.80;99.90;;;;;;5033505;28;20186;-60
2021/12/23 12:48:57;;;;;;;31.20;20.05;;;0.90;99.90;;;;;;5058358;28;20670;-62
2021/12/23 12:51:34;;;;;;;31.88;19.60;;;0.90;99.90;;;;;;5058367;28;20224;-61
2021/12/23 12:54:04;;;;;;;33.53;20.63;;;0.90;99.90;;;;;;5061541;28;20209;-61
2021/12/23 12:56:31;;;;;;;34.15;20.52;;;0.90;99.90;;;;;;5052148;28;20182;-62
2021/12/23 12:58:57;;;;;;;31.77;21.05;;;0.80;99.90;;;;;;5046156;28;20189;-62
2021/12/23 13:01:42;;;;;;;32.63;20.50;;;0.80;99.90;;;;;;5053858;28;20566;-61
2021/12/23 13:04:35;;;;;;;35.28;23.02;;;0.80;99.90;;;;;;5053559;28;20440;-61
2021/12/23 13:07:33;;;;;;;33.15;20.85;;;0.80;99.90;;;;;;5045886;28;20231;-63
2021/12/23 13:10:08;;;;;;;41.78;23.08;;;0.90;99.90;;;;;;5062623;28;20251;-62
2021/12/23 13:12:46;;;;;;;33.10;21.70;;;0.90;99.90;;;;;;5057661;28;20178;-62
2021/12/23 13:15:17;;;;;;;33.53;21.35;;;0.90;99.90;;;;;;5052811;28;20243;-63
2021/12/23 13:17:55;;;;;;;35.55;22.15;;;0.80;99.90;;;;;;5060411;28;20232;-62
2021/12/23 13:20:34;;;;;;;38.25;22.27;;;0.90;99.90;;;;;;5053738;28;20218;-63
2021/12/23 13:23:06;;;;;;;31.42;21.92;;;0.80;99.90;;;;;;5066341;28;20192;-62
2021/12/23 13:25:32;;;;;;;36.15;23.23;;;0.70;99.90;;;;;;5067570;28;20178;-61
2021/12/23 13:28:00;;;;;;;36.33;21.80;;;0.70;99.90;;;;;;5082458;28;20269;-62
2021/12/23 13:30:26;;;;;;;31.17;19.98;;;0.70;99.90;;;;;;5070049;28;20647;-62
2021/12/23 13:33:02;;;;;;;36.22;22.15;;;0.80;99.90;;;;;;5074380;28;20207;-63
2021/12/23 13:35:30;;;;;;;37.40;22.90;;;0.80;99.90;;;;;;5064167;28;20185;-63
2021/12/23 13:37:56;;;;;;;38.75;22.65;;;0.80;99.90;;;;;;5066759;28;20193;-63
2021/12/23 13:40:35;;;;;;;37.43;22.77;;;0.90;99.90;;;;;;5067273;28;20318;-64
2021/12/23 13:43:01;;;;;;;35.75;22.45;;;0.80;99.90;;;;;;5073371;28;20173;-64
2021/12/23 13:45:28;;;;;;;38.47;25.03;;;0.80;99.90;;;;;;5074473;28;20217;-64
2021/12/23 13:47:55;;;;;;;36.42;22.75;;;0.80;99.90;;;;;;5073218;28;20564;-64
2021/12/23 13:50:23;;;;;;;36.70;23.52;;;0.90;99.90;;;;;;5068215;28;20670;-64